Time;durP1;ratioP1;P1;durP2;ratioP2;P2;SDS_P1;SDS_P2;PMS_P1;PMS_P2;Temp;Humidity;BMP_temperature;BMP_pressure;BME280_temperature;BME280_humidity;BME280_pressure;Samples;Min_cycle;Max_cycle;Signal;HPM_P1;HPM_P2
2022/05/17 00:00:47;;;;;;;;;;;;;;;19.53;61.25;101706.38;1030765;28;1895;-61
2022/05/17 00:01:37;;;;;;;;;;;;;;;19.52;60.84;101711.94;1030164;28;831;-61
2022/05/17 00:02:28;;;;;;;;;;;;;;;19.52;61.47;101704.69;1027920;28;640;-62
2022/05/17 00:03:18;;;;;;;;;;;;;;;19.53;61.22;101709.06;1030990;28;666;-61
2022/05/17 00:04:08;;;;;;;;;;;;;;;19.52;60.43;101707.38;1029860;28;646;-62
2022/05/17 00:04:59;;;;;;;;;;;;;;;19.53;61.24;101703.66;1029777;28;609;-62
2022/05/17 00:05:49;;;;;;;;;;;;;;;19.52;61.19;101703.81;1029693;28;642;-61
2022/05/17 00:06:40;;;;;;;;;;;;;;;19.52;61.23;101706.53;1025478;28;670;-61
2022/05/17 00:07:30;;;;;;;;;;;;;;;19.51;61.24;101707.53;1025476;29;643;-61
2022/05/17 00:08:20;;;;;;;;;;;;;;;19.51;60.55;101705.66;1029634;28;630;-61
2022/05/17 00:09:11;;;;;;;;;;;;;;;19.50;61.11;101706.66;1030257;28;793;-61
2022/05/17 00:10:01;;;;;;;;;;;;;;;19.51;60.74;101712.94;1029674;28;654;-61
2022/05/17 00:10:52;;;;;;;;;;;;;;;19.51;60.99;101711.06;1029615;28;698;-61
2022/05/17 00:11:43;;;;;;;;;;;;;;;19.51;60.66;101711.06;1029641;28;686;-61
2022/05/17 00:12:34;;;;;;;;;;;;;;;19.52;60.84;101714.63;1026189;28;685;-61
2022/05/17 00:13:24;;;;;;;;;;;;;;;19.51;61.19;101713.78;1026272;28;717;-61
2022/05/17 00:14:14;;;;;;;;;;;;;;;19.51;60.83;101707.53;1026302;28;654;-61
2022/05/17 00:15:05;;;;;;;;;;;;;;;19.50;60.99;101708.50;1026737;28;654;-62
2022/05/17 00:15:55;;;;;;;;;;;;;;;19.49;60.85;101715.72;1025146;29;726;-62
2022/05/17 00:16:46;;;;;;;;;;;;;;;19.51;60.46;101710.22;1025041;29;696;-61
2022/05/17 00:17:36;;;;;;;;;;;;;;;19.49;61.27;101709.47;1026172;28;650;-62
2022/05/17 00:18:26;;;;;;;;;;;;;;;19.49;60.85;101709.47;1025041;29;735;-62
2022/05/17 00:19:18;;;;;;;;;;;;;;;19.50;61.26;101708.50;1024949;29;620;-61
2022/05/17 00:20:08;;;;;;;;;;;;;;;19.49;60.54;101707.63;1025665;29;675;-62
2022/05/17 00:20:58;;;;;;;;;;;;;;;19.49;61.21;101707.63;1030006;28;1894;-62
2022/05/17 00:21:49;;;;;;;;;;;;;;;19.48;60.55;101713.16;1028426;28;651;-62
2022/05/17 00:22:40;;;;;;;;;;;;;;;19.47;60.49;101706.91;1026158;28;677;-62
2022/05/17 00:23:30;;;;;;;;;;;;;;;19.47;60.71;101712.31;1025097;29;705;-61
2022/05/17 00:24:21;;;;;;;;;;;;;;;19.47;61.15;101706.91;1028279;28;1714;-61
2022/05/17 00:25:11;;;;;;;;;;;;;;;19.47;60.65;101706.91;1028500;28;675;-61
2022/05/17 00:26:01;;;;;;;;;;;;;;;19.46;61.21;101709.72;1029055;28;692;-61
2022/05/17 00:26:52;;;;;;;;;;;;;;;19.46;60.82;101709.72;1029208;28;639;-61
2022/05/17 00:27:43;;;;;;;;;;;;;;;19.46;61.21;101709.72;1030000;28;686;-62
2022/05/17 00:28:33;;;;;;;;;;;;;;;19.45;60.89;101703.47;1029069;28;647;-61
2022/05/17 00:29:25;;;;;;;;;;;;;;;19.45;61.23;101706.16;1032986;28;694;-62
2022/05/17 00:30:16;;;;;;;;;;;;;;;19.46;60.80;101704.31;1031586;28;615;-64
2022/05/17 00:31:06;;;;;;;;;;;;;;;19.45;60.43;101702.63;1031938;28;717;-62
2022/05/17 00:31:57;;;;;;;;;;;;;;;19.44;61.09;101701.75;1031183;28;631;-63
2022/05/17 00:32:47;;;;;;;;;;;;;;;19.45;61.21;101699.91;1029624;28;646;-62
2022/05/17 00:33:38;;;;;;;;;;;;;;;19.45;61.00;101703.47;1030351;28;659;-63
2022/05/17 00:34:28;;;;;;;;;;;;;;;19.44;61.21;101701.75;1028814;28;650;-63
2022/05/17 00:35:19;;;;;;;;;;;;;;;19.44;61.11;101699.06;1030925;28;650;-61
2022/05/17 00:36:09;;;;;;;;;;;;;;;19.43;61.34;101700.03;1030947;28;693;-62
2022/05/17 00:37:00;;;;;;;;;;;;;;;19.43;60.86;101697.34;1028910;28;757;-62
2022/05/17 00:37:50;;;;;;;;;;;;;;;19.45;60.66;101695.34;1029976;28;650;-62
2022/05/17 00:38:40;;;;;;;;;;;;;;;19.43;61.19;101700.03;1029084;28;730;-62
2022/05/17 00:39:32;;;;;;;;;;;;;;;19.43;61.26;101705.44;1030952;28;627;-62
2022/05/17 00:40:23;;;;;;;;;;;;;;;19.42;60.50;101706.44;1029686;28;662;-62
2022/05/17 00:41:13;;;;;;;;;;;;;;;19.42;61.19;101711.84;1030184;28;682;-62
2022/05/17 00:42:03;;;;;;;;;;;;;;;19.41;61.12;101708.28;1025390;29;932;-62
2022/05/17 00:42:56;;;;;;;;;;;;;;;19.41;61.13;101707.44;1025130;29;687;-62
2022/05/17 00:44:55;;;;;;;;;;;;;;;19.40;61.11;101711.13;1025684;29;710;-63
2022/05/17 00:45:46;;;;;;;;;;;;;;;19.39;61.20;101714.81;1028506;28;635;-62
2022/05/17 00:46:36;;;;;;;;;;;;;;;19.39;60.75;101714.81;1025271;29;734;-61
2022/05/17 00:47:27;;;;;;;;;;;;;;;19.40;61.21;101713.81;1024088;29;643;-61
2022/05/17 00:48:17;;;;;;;;;;;;;;;19.39;60.80;101720.22;1027557;28;682;-61
2022/05/17 00:49:08;;;;;;;;;;;;;;;19.38;61.04;101713.09;1027282;28;781;-63
2022/05/17 00:49:58;;;;;;;;;;;;;;;19.38;60.63;101710.41;1026759;28;1672;-61
2022/05/17 00:50:49;;;;;;;;;;;;;;;19.39;60.47;101709.41;1027080;28;1052;-60
2022/05/17 00:51:39;;;;;;;;;;;;;;;19.38;61.48;101702.28;1028856;28;635;-61
2022/05/17 00:52:29;;;;;;;;;;;;;;;19.38;60.54;101707.69;1029901;28;682;-61
2022/05/17 00:53:20;;;;;;;;;;;;;;;19.38;60.92;101705.00;1025727;28;619;-61
2022/05/17 00:54:10;;;;;;;;;;;;;;;19.38;61.11;101707.69;1025696;28;715;-61
2022/05/17 00:55:01;;;;;;;;;;;;;;;19.37;61.11;101705.97;1028835;28;694;-61
2022/05/17 00:55:51;;;;;;;;;;;;;;;19.35;60.33;101714.22;1029275;28;1357;-61
2022/05/17 00:56:42;;;;;;;;;;;;;;;19.34;61.21;101704.44;1029217;28;591;-61
2022/05/17 00:57:32;;;;;;;;;;;;;;;19.35;61.15;101700.72;1029433;28;660;-62
2022/05/17 00:58:22;;;;;;;;;;;;;;;19.34;60.84;101701.72;1029458;28;729;-61
2022/05/17 00:59:13;;;;;;;;;;;;;;;19.35;60.68;101705.25;1029952;28;678;-61
2022/05/17 01:00:03;;;;;;;;;;;;;;;19.35;61.05;101713.38;1029341;28;702;-61
2022/05/17 01:00:54;;;;;;;;;;;;;;;19.35;60.60;101698.00;1025558;28;1981;-61
2022/05/17 01:01:44;;;;;;;;;;;;;;;19.33;61.13;101708.13;1025128;28;1695;-61
2022/05/17 01:02:35;;;;;;;;;;;;;;;19.34;60.82;101706.28;1029227;28;609;-61
2022/05/17 01:03:25;;;;;;;;;;;;;;;19.33;60.55;101710.81;1029918;28;637;-61
2022/05/17 01:04:16;;;;;;;;;;;;;;;19.33;61.20;101708.13;1029530;28;619;-61
2022/05/17 01:05:06;;;;;;;;;;;;;;;19.32;60.84;101709.13;1032044;28;663;-61
2022/05/17 01:05:57;;;;;;;;;;;;;;;19.32;60.86;101708.25;1033145;28;662;-61
2022/05/17 01:06:47;;;;;;;;;;;;;;;19.32;60.94;101703.72;1025240;28;569;-60
2022/05/17 01:07:38;;;;;;;;;;;;;;;19.31;61.47;101704.69;1025511;28;1794;-62
2022/05/17 01:08:28;;;;;;;;;;;;;;;19.32;60.49;101703.72;1024941;29;690;-61
2022/05/17 01:09:18;;;;;;;;;;;;;;;19.32;60.65;101697.44;1024993;29;706;-60
2022/05/17 01:10:09;;;;;;;;;;;;;;;19.31;60.52;101698.44;1028267;28;624;-61
2022/05/17 01:10:59;;;;;;;;;;;;;;;19.32;60.70;101698.31;1030126;28;666;-60
2022/05/17 01:11:50;;;;;;;;;;;;;;;19.32;60.57;101701.00;1031427;28;634;-60
2022/05/17 01:12:40;;;;;;;;;;;;;;;19.31;61.25;101703.84;1033830;28;705;-61
2022/05/17 01:14:58;;;;;;;;;;;;;;;19.30;61.36;101699.44;1033213;28;726;-60
2022/05/17 01:15:49;;;;;;;;;;;;;;;19.28;61.31;101707.66;1030243;28;674;-60
2022/05/17 01:16:40;;;;;;;;;;;;;;;19.28;60.80;101701.41;1025916;28;1536;-60
2022/05/17 01:17:32;;;;;;;;;;;;;;;19.29;60.33;101705.81;1024436;29;627;-59
2022/05/17 01:18:23;;;;;;;;;;;;;;;19.28;61.27;101702.25;1025464;29;658;-61
2022/05/17 01:19:13;;;;;;;;;;;;;;;19.29;60.48;101708.53;1025582;28;624;-61
2022/05/17 01:20:04;;;;;;;;;;;;;;;19.31;60.68;101706.53;1021841;29;635;-61
2022/05/17 01:20:54;;;;;;;;;;;;;;;19.30;61.61;101702.13;1019956;29;1936;-61
2022/05/17 01:21:44;;;;;;;;;;;;;;;19.29;61.21;101701.28;1024307;29;671;-61
2022/05/17 01:22:35;;;;;;;;;;;;;;;19.29;60.81;101705.81;1026610;28;690;-63
2022/05/17 01:23:25;;;;;;;;;;;;;;;19.28;61.23;101704.97;1029580;28;1707;-61
2022/05/17 01:24:16;;;;;;;;;;;;;;;19.27;60.89;101705.94;1028804;28;537;-61
2022/05/17 01:25:06;;;;;;;;;;;;;;;19.26;60.69;101709.63;1024455;29;631;-61
2022/05/17 01:25:57;;;;;;;;;;;;;;;19.26;61.45;101703.38;1024917;29;639;-61
2022/05/17 01:26:47;;;;;;;;;;;;;;;19.26;60.96;101706.94;1029282;28;623;-61
2022/05/17 01:27:38;;;;;;;;;;;;;;;19.26;61.55;101708.78;1028754;28;693;-61
2022/05/17 01:28:28;;;;;;;;;;;;;;;19.26;61.58;101711.50;1024521;29;622;-61
2022/05/17 01:29:18;;;;;;;;;;;;;;;19.27;61.40;101711.34;1029399;28;722;-61
2022/05/17 01:30:09;;;;;;;;;;;;;;;19.27;61.30;101716.75;1032795;28;682;-61
2022/05/17 01:31:04;;;;;;;;;;;;;;;19.26;60.84;101714.19;1029342;28;689;-61
2022/05/17 01:31:54;;;;;;;;;;;;;;;19.27;61.19;101710.50;1029161;28;674;-61
2022/05/17 01:32:45;;;;;;;;;;;;;;;19.26;61.73;101708.78;1029788;28;665;-62
2022/05/17 01:33:35;;;;;;;;;;;;;;;19.25;61.30;101704.38;1028297;28;600;-61
2022/05/17 01:34:25;;;;;;;;;;;;;;;19.26;60.83;101706.09;1024481;29;663;-61
2022/05/17 01:35:16;;;;;;;;;;;;;;;19.26;60.48;101703.38;1025568;28;647;-62
2022/05/17 01:36:07;;;;;;;;;;;;;;;19.26;60.78;101708.78;1029196;28;664;-62
2022/05/17 01:36:57;;;;;;;;;;;;;;;19.26;61.34;101706.09;1028702;28;686;-62
2022/05/17 01:37:48;;;;;;;;;;;;;;;19.24;61.41;101708.91;1028013;28;616;-62
2022/05/17 01:38:38;;;;;;;;;;;;;;;19.25;61.33;101712.47;1029840;28;690;-61
2022/05/17 01:39:29;;;;;;;;;;;;;;;19.24;60.57;101710.75;1029904;28;678;-61
2022/05/17 01:40:19;;;;;;;;;;;;;;;19.24;60.44;101708.91;1029747;28;672;-61
2022/05/17 01:41:10;;;;;;;;;;;;;;;19.24;61.59;101710.75;1029546;28;1894;-62
2022/05/17 01:42:00;;;;;;;;;;;;;;;19.24;61.50;101705.34;1029224;28;657;-61
2022/05/17 01:42:50;;;;;;;;;;;;;;;19.23;61.42;101709.03;1029250;28;646;-61
2022/05/17 01:43:41;;;;;;;;;;;;;;;19.23;61.67;101714.44;1029233;28;630;-62
2022/05/17 01:44:31;;;;;;;;;;;;;;;19.21;61.18;101711.03;1033451;28;668;-62
2022/05/17 01:45:22;;;;;;;;;;;;;;;19.22;60.59;101712.75;1032984;28;630;-61
2022/05/17 01:46:13;;;;;;;;;;;;;;;19.22;61.13;101707.34;1029230;28;615;-62
2022/05/17 01:47:04;;;;;;;;;;;;;;;19.20;60.98;101704.75;1028803;28;643;-61
2022/05/17 01:47:54;;;;;;;;;;;;;;;19.22;60.87;101710.03;1029297;28;598;-62
2022/05/17 01:48:44;;;;;;;;;;;;;;;19.21;61.12;101717.28;1029264;28;642;-62
2022/05/17 01:49:35;;;;;;;;;;;;;;;19.20;61.31;101710.16;1029011;28;1651;-62
2022/05/17 01:50:25;;;;;;;;;;;;;;;19.21;61.20;101711.03;1029984;28;610;-62
2022/05/17 01:51:16;;;;;;;;;;;;;;;19.20;61.11;101712.00;1025983;28;622;-62
2022/05/17 01:52:06;;;;;;;;;;;;;;;19.20;60.80;101712.00;1025180;29;678;-61
2022/05/17 01:52:57;;;;;;;;;;;;;;;19.20;60.77;101712.00;1025128;28;630;-61
2022/05/17 01:53:47;;;;;;;;;;;;;;;19.20;61.26;101706.59;1025303;28;640;-62
2022/05/17 01:54:37;;;;;;;;;;;;;;;19.19;60.99;101713.00;1025233;28;733;-61
2022/05/17 01:55:28;;;;;;;;;;;;;;;19.19;61.04;101721.09;1024632;28;639;-61
2022/05/17 01:56:18;;;;;;;;;;;;;;;19.19;60.57;101715.69;1024619;29;678;-62
2022/05/17 01:57:09;;;;;;;;;;;;;;;19.19;61.86;101713.00;1025085;28;1201;-61
2022/05/17 01:58:00;;;;;;;;;;;;;;;19.20;60.48;101720.13;1024615;29;599;-61
2022/05/17 01:58:50;;;;;;;;;;;;;;;19.19;61.32;101721.09;1025751;28;638;-61
2022/05/17 01:59:41;;;;;;;;;;;;;;;19.19;60.87;101723.81;1024635;29;658;-60
2022/05/17 02:00:31;;;;;;;;;;;;;;;19.18;60.93;101716.69;1025609;28;1785;-61
2022/05/17 02:01:22;;;;;;;;;;;;;;;19.17;61.52;101715.00;1025328;28;737;-60
2022/05/17 02:02:12;;;;;;;;;;;;;;;19.17;61.38;101720.41;1020892;29;636;-61
2022/05/17 02:03:02;;;;;;;;;;;;;;;19.17;61.46;101721.25;1024448;28;678;-62
2022/05/17 02:03:53;;;;;;;;;;;;;;;19.17;60.61;101715.00;1027898;28;659;-61
2022/05/17 02:04:43;;;;;;;;;;;;;;;19.15;61.53;101709.75;1029171;28;694;-61
2022/05/17 02:05:34;;;;;;;;;;;;;;;19.16;61.03;101713.28;1029100;28;713;-61
2022/05/17 02:06:25;;;;;;;;;;;;;;;19.13;61.20;101711.72;1028620;28;638;-61
2022/05/17 02:07:15;;;;;;;;;;;;;;;19.16;60.72;101710.59;1025356;28;698;-61
2022/05/17 02:08:06;;;;;;;;;;;;;;;19.16;61.35;101716.00;1024792;29;690;-61
2022/05/17 02:08:56;;;;;;;;;;;;;;;19.14;61.61;101715.28;1028659;28;674;-60
2022/05/17 02:09:47;;;;;;;;;;;;;;;19.15;61.34;101714.28;1025514;28;655;-60
2022/05/17 02:10:38;;;;;;;;;;;;;;;19.14;61.09;101720.69;1025022;29;662;-60
2022/05/17 02:11:29;;;;;;;;;;;;;;;19.14;60.95;101721.53;1028442;28;674;-62
2022/05/17 02:12:19;;;;;;;;;;;;;;;19.15;60.98;101719.69;1029137;28;682;-60
2022/05/17 02:13:10;;;;;;;;;;;;;;;19.13;60.96;101711.72;1029149;28;654;-59
2022/05/17 02:14:01;;;;;;;;;;;;;;;19.12;61.42;101707.28;1029121;28;894;-60
2022/05/17 02:14:52;;;;;;;;;;;;;;;19.11;61.39;101716.41;1029172;28;733;-59
2022/05/17 02:15:42;;;;;;;;;;;;;;;19.13;61.03;101718.97;1029006;28;631;-60
2022/05/17 02:16:32;;;;;;;;;;;;;;;19.11;61.17;101716.41;1029194;28;713;-60
2022/05/17 02:17:23;;;;;;;;;;;;;;;19.11;60.80;101715.53;1028594;28;725;-59
2022/05/17 02:18:13;;;;;;;;;;;;;;;19.10;61.39;101711.97;1028655;28;662;-60
2022/05/17 02:19:04;;;;;;;;;;;;;;;19.08;61.02;101717.50;1028364;28;649;-60
2022/05/17 02:19:54;;;;;;;;;;;;;;;19.09;61.09;101718.38;1028456;28;647;-59
2022/05/17 02:20:45;;;;;;;;;;;;;;;19.08;61.48;101714.81;1025587;28;1891;-59
2022/05/17 02:21:35;;;;;;;;;;;;;;;19.10;60.97;101724.63;1025160;29;628;-60
2022/05/17 02:22:25;;;;;;;;;;;;;;;19.10;61.05;101721.94;1025819;29;706;-59
2022/05/17 02:23:16;;;;;;;;;;;;;;;19.11;60.53;101726.34;1022554;29;628;-59
2022/05/17 02:24:06;;;;;;;;;;;;;;;19.11;61.04;101723.63;1022516;29;683;-59
2022/05/17 02:24:57;;;;;;;;;;;;;;;19.10;61.63;101728.19;1028322;29;667;-59
2022/05/17 02:25:47;;;;;;;;;;;;;;;19.11;61.25;101726.34;1027841;28;655;-59
2022/05/17 02:26:37;;;;;;;;;;;;;;;19.08;61.33;101727.47;1028652;29;686;-59
2022/05/17 02:27:28;;;;;;;;;;;;;;;19.10;60.85;101730.03;1024752;29;690;-59
2022/05/17 02:28:18;;;;;;;;;;;;;;;19.09;61.19;101734.56;1025175;29;675;-59
2022/05/17 02:29:09;;;;;;;;;;;;;;;19.07;61.11;101732.00;1024651;29;701;-58
2022/05/17 02:29:59;;;;;;;;;;;;;;;19.07;61.06;101726.59;1025854;28;646;-58
2022/05/17 02:30:50;;;;;;;;;;;;;;;19.07;61.31;101739.25;1020899;29;659;-59
2022/05/17 02:31:40;;;;;;;;;;;;;;;19.06;61.43;101733.00;1020442;29;763;-59
2022/05/17 02:32:30;;;;;;;;;;;;;;;19.06;60.99;101730.28;1024977;29;694;-59
2022/05/17 02:33:21;;;;;;;;;;;;;;;19.07;61.47;101725.75;1024529;29;692;-59
2022/05/17 02:34:11;;;;;;;;;;;;;;;19.07;61.68;101733.84;1020781;29;635;-59
2022/05/17 02:35:02;;;;;;;;;;;;;;;19.04;60.62;101732.25;1024838;29;639;-59
2022/05/17 02:35:52;;;;;;;;;;;;;;;19.06;61.50;101729.44;1029209;28;560;-60
2022/05/17 02:36:44;;;;;;;;;;;;;;;19.06;60.95;101730.28;1025208;28;607;-60
2022/05/17 02:37:34;;;;;;;;;;;;;;;19.04;60.92;101728.72;1025148;29;913;-60
2022/05/17 02:38:26;;;;;;;;;;;;;;;19.04;61.34;101726.88;1025658;28;635;-60
2022/05/17 02:39:16;;;;;;;;;;;;;;;19.04;61.72;101726.88;1025025;29;670;-60
2022/05/17 02:40:07;;;;;;;;;;;;;;;19.05;61.50;101719.63;1025656;28;1679;-60
2022/05/17 02:40:57;;;;;;;;;;;;;;;19.04;61.83;101728.72;1028928;28;1958;-59
2022/05/17 02:41:48;;;;;;;;;;;;;;;19.04;60.56;101726.00;1033243;28;678;-59
2022/05/17 02:42:38;;;;;;;;;;;;;;;19.03;61.49;101741.34;1028741;28;698;-60
2022/05/17 02:43:29;;;;;;;;;;;;;;;19.03;61.35;101735.94;1023893;29;706;-60
2022/05/17 02:44:19;;;;;;;;;;;;;;;19.02;60.80;101736.94;1029048;28;689;-59
2022/05/17 02:45:11;;;;;;;;;;;;;;;19.03;61.02;101737.81;1029007;28;637;-59
2022/05/17 02:46:01;;;;;;;;;;;;;;;19.02;61.21;101734.25;1028494;28;607;-60
2022/05/17 02:46:52;;;;;;;;;;;;;;;19.01;61.49;101743.34;1029450;28;631;-59
2022/05/17 02:47:42;;;;;;;;;;;;;;;19.02;61.01;101741.50;1028993;28;694;-60
2022/05/17 02:48:32;;;;;;;;;;;;;;;19.01;61.12;101742.47;1029563;28;677;-59
2022/05/17 02:49:23;;;;;;;;;;;;;;;19.00;60.88;101743.47;1029570;28;627;-59
2022/05/17 02:50:13;;;;;;;;;;;;;;;18.99;60.92;101749.84;1033279;28;639;-60
2022/05/17 02:51:04;;;;;;;;;;;;;;;18.98;61.00;101740.06;1029197;28;669;-60
2022/05/17 02:51:54;;;;;;;;;;;;;;;18.98;60.78;101743.63;1025273;28;697;-61
2022/05/17 02:52:45;;;;;;;;;;;;;;;18.99;61.34;101744.44;1024313;29;656;-62
2022/05/17 02:53:35;;;;;;;;;;;;;;;18.98;61.30;101745.47;1023833;29;659;-62
2022/05/17 02:54:26;;;;;;;;;;;;;;;18.97;60.71;101750.00;1023987;29;734;-62
2022/05/17 02:55:16;;;;;;;;;;;;;;;18.97;61.36;101741.06;1029235;28;687;-61
2022/05/17 02:56:07;;;;;;;;;;;;;;;18.97;60.86;101758.13;1029076;28;1384;-60
2022/05/17 02:56:57;;;;;;;;;;;;;;;18.98;60.81;101743.63;1025291;28;659;-60
2022/05/17 02:57:47;;;;;;;;;;;;;;;18.96;60.71;101742.91;1023994;29;658;-60
2022/05/17 02:58:38;;;;;;;;;;;;;;;18.97;60.59;101749.16;1023821;29;652;-60
2022/05/17 02:59:28;;;;;;;;;;;;;;;18.98;61.27;101748.16;1023855;29;639;-60
2022/05/17 03:00:19;;;;;;;;;;;;;;;18.97;60.91;101746.47;1025014;29;615;-58
2022/05/17 03:01:09;;;;;;;;;;;;;;;18.97;61.20;101749.16;1024928;29;1963;-59
2022/05/17 03:02:00;;;;;;;;;;;;;;;18.95;60.75;101743.88;1025004;29;659;-59
2022/05/17 03:02:50;;;;;;;;;;;;;;;18.96;61.13;101736.63;1024914;29;690;-60
2022/05/17 03:03:41;;;;;;;;;;;;;;;18.95;60.95;101737.63;1024960;29;666;-62
2022/05/17 03:04:31;;;;;;;;;;;;;;;18.94;60.77;101736.75;1024977;29;608;-62
2022/05/17 03:05:21;;;;;;;;;;;;;;;18.94;61.21;101731.38;1025233;29;644;-60
2022/05/17 03:06:12;;;;;;;;;;;;;;;18.94;61.71;101736.75;1024882;29;682;-62
2022/05/17 03:07:02;;;;;;;;;;;;;;;18.92;61.92;101744.13;1024893;29;533;-63
2022/05/17 03:07:53;;;;;;;;;;;;;;;18.92;60.95;101741.44;1025464;28;706;-61
2022/05/17 03:08:43;;;;;;;;;;;;;;;18.92;61.25;101738.75;1024880;29;628;-62
2022/05/17 03:09:34;;;;;;;;;;;;;;;18.93;61.46;101735.06;1024885;29;623;-61
2022/05/17 03:10:24;;;;;;;;;;;;;;;18.91;61.30;101734.31;1024911;29;686;-62
2022/05/17 03:11:15;;;;;;;;;;;;;;;18.90;60.76;101735.31;1025010;29;709;-62
2022/05/17 03:12:05;;;;;;;;;;;;;;;18.90;61.20;101735.31;1024890;29;693;-62
2022/05/17 03:12:56;;;;;;;;;;;;;;;18.90;61.77;101729.91;1025014;29;682;-61
2022/05/17 03:13:46;;;;;;;;;;;;;;;18.91;60.80;101736.16;1024995;29;659;-61
2022/05/17 03:14:36;;;;;;;;;;;;;;;18.92;61.29;101738.75;1025083;29;663;-61
2022/05/17 03:15:27;;;;;;;;;;;;;;;18.91;61.53;101737.03;1024621;29;655;-61
2022/05/17 03:16:17;;;;;;;;;;;;;;;18.91;61.46;101742.44;1024958;29;643;-61
2022/05/17 03:17:08;;;;;;;;;;;;;;;18.91;60.54;101739.72;1024554;29;592;-61
2022/05/17 03:17:58;;;;;;;;;;;;;;;18.90;61.00;101740.72;1024933;29;647;-61
2022/05/17 03:18:50;;;;;;;;;;;;;;;18.92;61.08;101743.28;1024909;29;713;-62
2022/05/17 03:19:40;;;;;;;;;;;;;;;18.89;60.94;101740.84;1024940;29;686;-61
2022/05/17 03:20:31;;;;;;;;;;;;;;;18.90;61.13;101731.75;1024863;29;649;-62
2022/05/17 03:21:21;;;;;;;;;;;;;;;18.89;60.85;101738.13;1024894;29;698;-61
2022/05/17 03:22:11;;;;;;;;;;;;;;;18.88;60.92;101739.13;1024964;29;659;-61
2022/05/17 03:23:02;;;;;;;;;;;;;;;18.88;60.83;101744.53;1024901;29;765;-62
2022/05/17 03:23:52;;;;;;;;;;;;;;;18.89;60.78;101744.41;1024955;29;553;-62
2022/05/17 03:24:43;;;;;;;;;;;;;;;18.88;61.15;101745.38;1024823;29;663;-62
2022/05/17 03:25:33;;;;;;;;;;;;;;;18.87;61.59;101742.81;1024887;29;643;-62
2022/05/17 03:26:23;;;;;;;;;;;;;;;18.85;60.73;101740.25;1028640;28;745;-62
2022/05/17 03:27:14;;;;;;;;;;;;;;;18.86;60.84;101746.50;1029145;28;745;-61
2022/05/17 03:28:04;;;;;;;;;;;;;;;18.86;60.89;101733.00;1020827;28;686;-61
2022/05/17 03:28:56;;;;;;;;;;;;;;;18.88;61.21;101737.28;1021582;28;647;-61
2022/05/17 03:29:47;;;;;;;;;;;;;;;18.87;61.58;101740.97;1025811;28;1679;-61
2022/05/17 03:30:37;;;;;;;;;;;;;;;18.87;61.16;101735.56;1024821;29;698;-61
2022/05/17 03:31:28;;;;;;;;;;;;;;;18.87;61.01;101740.09;1025488;28;679;-62
2022/05/17 03:32:18;;;;;;;;;;;;;;;18.85;61.19;101736.69;1025456;28;682;-62
2022/05/17 03:33:08;;;;;;;;;;;;;;;18.86;61.21;101733.84;1026705;28;744;-62
2022/05/17 03:33:59;;;;;;;;;;;;;;;18.86;60.84;101733.84;1026214;28;674;-62
2022/05/17 03:34:49;;;;;;;;;;;;;;;18.85;60.85;101729.44;1025884;29;784;-61
2022/05/17 03:35:40;;;;;;;;;;;;;;;18.85;60.92;101737.53;1023248;29;632;-62
2022/05/17 03:36:30;;;;;;;;;;;;;;;18.86;60.39;101738.41;1027031;28;714;-62
2022/05/17 03:37:21;;;;;;;;;;;;;;;18.84;61.11;101738.53;1025182;28;733;-62
2022/05/17 03:38:11;;;;;;;;;;;;;;;18.86;61.05;101743.78;1025722;29;643;-62
2022/05/17 03:39:01;;;;;;;;;;;;;;;18.85;61.22;101737.53;1020854;29;631;-62
2022/05/17 03:39:52;;;;;;;;;;;;;;;18.85;61.65;101740.25;1021987;28;690;-62
2022/05/17 03:40:42;;;;;;;;;;;;;;;18.84;61.04;101734.97;1023524;29;639;-62
2022/05/17 03:41:33;;;;;;;;;;;;;;;18.83;60.92;101736.81;1025253;28;665;-62
2022/05/17 03:42:23;;;;;;;;;;;;;;;18.83;61.47;101741.34;1025216;28;698;-62
2022/05/17 03:43:14;;;;;;;;;;;;;;;18.84;60.83;101741.22;1024543;29;698;-62
2022/05/17 03:44:04;;;;;;;;;;;;;;;18.82;60.79;101743.19;1025127;28;619;-61
2022/05/17 03:44:54;;;;;;;;;;;;;;;18.83;60.83;101746.75;1020738;29;643;-61
2022/05/17 03:45:45;;;;;;;;;;;;;;;18.83;61.26;101744.06;1020275;29;710;-62
2022/05/17 03:46:35;;;;;;;;;;;;;;;18.84;60.79;101743.06;1023161;29;766;-61
2022/05/17 03:47:26;;;;;;;;;;;;;;;18.84;61.13;101749.31;1025310;28;659;-61
2022/05/17 03:48:16;;;;;;;;;;;;;;;18.83;60.76;101744.06;1024336;29;662;-61
2022/05/17 03:49:07;;;;;;;;;;;;;;;18.84;61.60;101751.16;1025549;28;678;-61
2022/05/17 03:49:57;;;;;;;;;;;;;;;18.83;61.64;101753.00;1025460;28;650;-61
2022/05/17 03:50:47;;;;;;;;;;;;;;;18.83;60.30;101750.31;1027636;28;1202;-62
2022/05/17 03:51:38;;;;;;;;;;;;;;;18.83;60.92;101753.00;1028827;28;702;-61
2022/05/17 03:52:28;;;;;;;;;;;;;;;18.83;61.30;101750.31;1029426;28;626;-61
2022/05/17 03:53:19;;;;;;;;;;;;;;;18.83;61.11;101746.75;1028851;28;670;-62
2022/05/17 03:54:11;;;;;;;;;;;;;;;18.84;60.72;101745.78;1028918;28;639;-61
2022/05/17 03:55:01;;;;;;;;;;;;;;;18.83;61.26;101747.63;1030007;28;650;-61
2022/05/17 03:55:52;;;;;;;;;;;;;;;18.84;60.37;101741.22;1028592;28;1238;-61
2022/05/17 03:56:42;;;;;;;;;;;;;;;18.83;60.66;101744.06;1028819;28;655;-61
2022/05/17 03:57:32;;;;;;;;;;;;;;;18.83;61.20;101742.22;1028934;28;741;-62
2022/05/17 03:58:23;;;;;;;;;;;;;;;18.83;61.61;101744.91;1028854;28;704;-61
2022/05/17 03:59:13;;;;;;;;;;;;;;;18.82;60.51;101753.13;1028847;28;623;-61
2022/05/17 04:00:06;;;;;;;;;;;;;;;18.84;60.71;101749.31;1025399;28;663;-61
2022/05/17 04:00:57;;;;;;;;;;;;;;;18.84;60.76;101749.31;1024827;29;1914;-61
2022/05/17 04:01:48;;;;;;;;;;;;;;;18.88;60.73;101755.31;1028065;28;1704;-60
2022/05/17 04:02:38;;;;;;;;;;;;;;;18.87;60.60;101753.63;1028176;28;639;-61
2022/05/17 04:03:29;;;;;;;;;;;;;;;18.85;60.40;101756.44;1029405;28;721;-60
2022/05/17 04:04:19;;;;;;;;;;;;;;;18.86;60.61;101750.06;1029319;28;610;-61
2022/05/17 04:05:09;;;;;;;;;;;;;;;18.86;60.76;101755.47;1029382;28;705;-60
2022/05/17 04:06:00;;;;;;;;;;;;;;;18.85;61.56;101756.44;1029570;28;666;-61
2022/05/17 04:06:50;;;;;;;;;;;;;;;18.84;61.71;101760.13;1029393;28;685;-61
2022/05/17 04:07:41;;;;;;;;;;;;;;;18.85;60.94;101761.84;1028235;28;670;-61
2022/05/17 04:08:31;;;;;;;;;;;;;;;18.84;60.65;101752.03;1028168;28;678;-61
2022/05/17 04:09:22;;;;;;;;;;;;;;;18.83;61.11;101753.00;1028441;28;682;-61
2022/05/17 04:10:12;;;;;;;;;;;;;;;18.83;61.58;101750.31;1028142;28;658;-61
2022/05/17 04:11:02;;;;;;;;;;;;;;;18.83;61.48;101750.31;1028270;28;623;-61
2022/05/17 04:11:53;;;;;;;;;;;;;;;18.81;60.85;101756.88;1028186;28;1624;-61
2022/05/17 04:12:43;;;;;;;;;;;;;;;18.81;61.74;101746.06;1028793;28;639;-61
2022/05/17 04:13:34;;;;;;;;;;;;;;;18.82;61.60;101754.00;1028884;28;623;-61
2022/05/17 04:14:24;;;;;;;;;;;;;;;18.83;61.60;101755.72;1028679;28;679;-61
2022/05/17 04:15:14;;;;;;;;;;;;;;;18.83;60.75;101753.00;1028827;28;638;-61
2022/05/17 04:16:05;;;;;;;;;;;;;;;18.82;60.70;101748.59;1029420;28;623;-61
2022/05/17 04:16:55;;;;;;;;;;;;;;;18.81;60.97;101749.59;1028796;28;584;-61
2022/05/17 04:17:46;;;;;;;;;;;;;;;18.81;61.03;101749.59;1028963;28;627;-61
2022/05/17 04:18:36;;;;;;;;;;;;;;;18.83;60.52;101750.31;1028835;28;615;-62
2022/05/17 04:19:26;;;;;;;;;;;;;;;18.80;60.63;101747.91;1029639;28;717;-62
2022/05/17 04:20:17;;;;;;;;;;;;;;;18.81;61.40;101752.28;1029988;28;1703;-61
2022/05/17 04:21:07;;;;;;;;;;;;;;;18.81;61.45;101749.59;1028987;28;1902;-63
2022/05/17 04:21:58;;;;;;;;;;;;;;;18.82;61.63;101750.44;1029077;28;694;-61
2022/05/17 04:22:48;;;;;;;;;;;;;;;18.81;61.29;101749.59;1028961;28;772;-62
2022/05/17 04:23:39;;;;;;;;;;;;;;;18.81;61.02;101754.16;1029115;28;702;-62
2022/05/17 04:24:29;;;;;;;;;;;;;;;18.81;61.10;101749.59;1030196;28;642;-62
2022/05/17 04:25:19;;;;;;;;;;;;;;;18.82;61.58;101748.59;1024774;29;674;-62
2022/05/17 04:26:10;;;;;;;;;;;;;;;18.81;61.20;101746.88;1025419;29;651;-62
2022/05/17 04:27:00;;;;;;;;;;;;;;;18.82;61.59;101750.44;1029451;28;653;-61
2022/05/17 04:27:51;;;;;;;;;;;;;;;18.80;60.78;101744.34;1028690;28;627;-61
2022/05/17 04:28:41;;;;;;;;;;;;;;;18.80;61.27;101742.50;1029303;28;615;-61